Time;durP1;ratioP1;P1;durP2;ratioP2;P2;SDS_P1;SDS_P2;PMS_P1;PMS_P2;Temp;Humidity;BMP_temperature;BMP_pressure;BME280_temperature;BME280_humidity;BME280_pressure;Samples;Min_cycle;Max_cycle;Signal;HPM_P1;HPM_P2
2023/12/19 00:02:28;;;;;;;22.90;15.52;;;;;;;;;;5260603;28;20428;-82
2023/12/19 00:05:00;;;;;;;23.92;16.15;;;;;;;;;;5262812;28;20029;-82
2023/12/19 00:07:32;;;;;;;21.55;14.85;;;;;;;;;;5265353;28;20021;-82
2023/12/19 00:10:04;;;;;;;20.92;14.20;;;;;;;;;;5264389;28;20040;-81
2023/12/19 00:12:35;;;;;;;18.23;13.68;;;;;;;;;;5265185;28;20028;-82
2023/12/19 00:15:07;;;;;;;21.15;14.50;;;;;;;;;;5264027;28;20025;-83
2023/12/19 00:17:39;;;;;;;22.15;16.00;;;;;;;;;;5264925;28;20032;-82
2023/12/19 00:20:10;;;;;;;22.25;15.40;;;;;;;;;;5264815;28;20464;-82
2023/12/19 00:22:41;;;;;;;20.73;14.68;;;;;;;;;;5264251;28;20025;-83
2023/12/19 00:25:13;;;;;;;29.20;16.77;;;;;;;;;;5264442;28;20099;-82
2023/12/19 00:27:44;;;;;;;21.83;16.10;;;;;;;;;;5264662;28;20550;-83
2023/12/19 00:30:16;;;;;;;23.40;15.95;;;;;;;;;;5263541;28;20141;-82
2023/12/19 00:32:47;;;;;;;22.38;15.45;;;;;;;;;;5264604;28;20380;-82
2023/12/19 00:35:18;;;;;;;20.92;15.80;;;;;;;;;;5264247;28;20028;-82
2023/12/19 00:37:49;;;;;;;21.77;15.35;;;;;;;;;;5263697;28;20028;-81
2023/12/19 00:40:20;;;;;;;20.58;15.07;;;;;;;;;;5263942;28;20025;-83
2023/12/19 00:42:52;;;;;;;23.63;16.17;;;;;;;;;;5264451;28;20029;-82
2023/12/19 00:45:23;;;;;;;23.08;15.35;;;;;;;;;;5264096;28;20099;-84
2023/12/19 00:47:54;;;;;;;26.48;17.00;;;;;;;;;;5264803;28;20083;-83
2023/12/19 00:50:25;;;;;;;25.40;15.70;;;;;;;;;;5263068;28;20021;-82
2023/12/19 00:52:56;;;;;;;21.98;15.82;;;;;;;;;;5264387;28;20053;-82
2023/12/19 00:55:28;;;;;;;22.05;15.90;;;;;;;;;;5263721;28;20036;-83
2023/12/19 00:57:59;;;;;;;24.65;15.52;;;;;;;;;;5262884;28;20021;-82
2023/12/19 01:00:30;;;;;;;22.85;16.33;;;;;;;;;;5264048;28;20544;-83
2023/12/19 01:03:01;;;;;;;23.08;16.00;;;;;;;;;;5263727;28;20017;-83
2023/12/19 01:05:32;;;;;;;24.63;16.20;;;;;;;;;;5263802;28;20017;-82
2023/12/19 01:08:04;;;;;;;22.77;15.48;;;;;;;;;;5264163;28;20060;-83
2023/12/19 01:10:35;;;;;;;25.83;16.42;;;;;;;;;;5264008;28;20086;-82
2023/12/19 01:13:06;;;;;;;20.88;15.02;;;;;;;;;;5263532;28;20060;-82
2023/12/19 01:15:37;;;;;;;26.80;16.17;;;;;;;;;;5262572;28;20078;-83
2023/12/19 01:18:08;;;;;;;26.20;17.63;;;;;;;;;;5262621;28;20422;-82
2023/12/19 01:20:40;;;;;;;21.42;14.75;;;;;;;;;;5263887;28;20035;-82
2023/12/19 01:23:11;;;;;;;23.33;16.88;;;;;;;;;;5263412;28;20075;-82
2023/12/19 01:25:42;;;;;;;23.67;16.95;;;;;;;;;;5262861;28;20048;-82
2023/12/19 01:28:13;;;;;;;24.83;15.77;;;;;;;;;;5263680;28;20086;-82
2023/12/19 01:30:45;;;;;;;22.75;16.65;;;;;;;;;;5263357;28;20044;-83
2023/12/19 01:33:16;;;;;;;24.77;16.15;;;;;;;;;;5262288;28;20037;-82
2023/12/19 01:35:47;;;;;;;23.35;16.13;;;;;;;;;;5263174;28;20044;-83
2023/12/19 01:38:18;;;;;;;23.88;16.67;;;;;;;;;;5262986;28;20040;-81
2023/12/19 01:40:49;;;;;;;29.25;18.25;;;;;;;;;;5259977;28;20052;-82
2023/12/19 01:43:21;;;;;;;24.20;17.77;;;;;;;;;;5260571;28;20025;-82
2023/12/19 01:45:52;;;;;;;28.15;18.58;;;;;;;;;;5260898;28;20032;-82
2023/12/19 01:48:24;;;;;;;24.35;16.75;;;;;;;;;;5259646;28;20051;-82
2023/12/19 01:50:55;;;;;;;26.88;16.58;;;;;;;;;;5260911;28;20013;-83
2023/12/19 01:53:26;;;;;;;24.80;16.27;;;;;;;;;;5260084;28;20017;-82
2023/12/19 01:55:57;;;;;;;22.92;16.15;;;;;;;;;;5261847;28;20078;-83
2023/12/19 01:58:30;;;;;;;22.40;16.25;;;;;;;;;;5261237;28;20033;-83
2023/12/19 02:01:01;;;;;;;25.00;15.85;;;;;;;;;;5262151;28;20017;-83
2023/12/19 02:03:33;;;;;;;28.38;17.83;;;;;;;;;;5261186;28;20145;-83
2023/12/19 02:06:04;;;;;;;25.65;17.20;;;;;;;;;;5262305;28;20401;-83
2023/12/19 02:08:35;;;;;;;25.08;16.80;;;;;;;;;;5262073;28;20446;-82
2023/12/19 02:11:07;;;;;;;20.95;16.02;;;;;;;;;;5262483;28;20021;-83
2023/12/19 02:13:38;;;;;;;20.20;15.00;;;;;;;;;;5262707;28;20491;-82
2023/12/19 02:16:09;;;;;;;23.98;16.30;;;;;;;;;;5261761;28;20107;-82
2023/12/19 02:18:40;;;;;;;30.33;17.20;;;;;;;;;;5262769;28;20036;-83
2023/12/19 02:21:11;;;;;;;22.13;15.90;;;;;;;;;;5262181;28;20043;-82
2023/12/19 02:23:43;;;;;;;24.10;16.65;;;;;;;;;;5262022;28;20108;-83
2023/12/19 02:26:14;;;;;;;21.73;16.35;;;;;;;;;;5261871;28;20064;-82
2023/12/19 02:28:45;;;;;;;22.52;16.52;;;;;;;;;;5261036;28;20028;-82
2023/12/19 02:31:16;;;;;;;23.23;16.65;;;;;;;;;;5262102;28;20013;-82
2023/12/19 02:33:47;;;;;;;21.58;15.94;;;;;;;;;;5261843;28;20110;-83
2023/12/19 02:36:19;;;;;;;23.65;17.15;;;;;;;;;;5261679;28;20017;-82
2023/12/19 02:38:50;;;;;;;19.90;14.90;;;;;;;;;;5262007;28;20112;-83
2023/12/19 02:41:21;;;;;;;24.14;15.92;;;;;;;;;;5261875;28;20024;-83
2023/12/19 02:43:52;;;;;;;19.17;13.98;;;;;;;;;;5261428;28;20032;-83
2023/12/19 02:46:23;;;;;;;19.95;15.00;;;;;;;;;;5261853;28;20491;-83
2023/12/19 02:48:54;;;;;;;24.13;15.63;;;;;;;;;;5262278;28;20091;-82
2023/12/19 02:51:26;;;;;;;18.27;14.90;;;;;;;;;;5261333;28;20029;-83
2023/12/19 02:53:58;;;;;;;20.50;14.75;;;;;;;;;;5261572;28;20017;-83
2023/12/19 02:56:30;;;;;;;20.67;15.30;;;;;;;;;;5261383;28;20025;-83
2023/12/19 02:59:01;;;;;;;18.90;13.40;;;;;;;;;;5261694;28;20040;-83
2023/12/19 03:01:33;;;;;;;18.63;13.80;;;;;;;;;;5261974;28;20017;-82
2023/12/19 03:04:04;;;;;;;20.88;14.77;;;;;;;;;;5261130;28;20494;-82
2023/12/19 03:06:35;;;;;;;18.17;13.48;;;;;;;;;;5261388;28;20017;-82
2023/12/19 03:09:06;;;;;;;16.60;13.20;;;;;;;;;;5261278;28;20021;-82
2023/12/19 03:11:38;;;;;;;18.40;13.93;;;;;;;;;;5260477;28;20023;-81
2023/12/19 03:14:09;;;;;;;18.23;15.10;;;;;;;;;;5261392;28;20419;-82
2023/12/19 03:16:40;;;;;;;20.48;15.23;;;;;;;;;;5261111;28;20036;-82
2023/12/19 03:19:11;;;;;;;21.55;15.50;;;;;;;;;;5260354;28;20071;-82
2023/12/19 03:21:43;;;;;;;20.13;14.82;;;;;;;;;;5260930;28;20017;-82
2023/12/19 03:24:14;;;;;;;16.98;13.52;;;;;;;;;;5260765;28;20103;-82
2023/12/19 03:26:45;;;;;;;17.88;13.85;;;;;;;;;;5260241;28;20508;-83
2023/12/19 03:29:16;;;;;;;18.95;13.88;;;;;;;;;;5261122;28;20020;-81
2023/12/19 03:31:48;;;;;;;16.77;13.25;;;;;;;;;;5259842;28;20099;-82
2023/12/19 03:34:19;;;;;;;19.67;14.98;;;;;;;;;;5260719;28;20029;-82
2023/12/19 03:36:50;;;;;;;18.65;14.43;;;;;;;;;;5261571;28;20056;-81
2023/12/19 03:39:22;;;;;;;18.67;14.15;;;;;;;;;;5260863;28;20040;-81
2023/12/19 03:41:53;;;;;;;19.92;13.98;;;;;;;;;;5265656;28;20017;-82
2023/12/19 03:44:24;;;;;;;20.90;14.70;;;;;;;;;;5265344;28;20040;-82
2023/12/19 03:46:55;;;;;;;17.13;14.02;;;;;;;;;;5264875;28;20020;-81
2023/12/19 03:49:27;;;;;;;17.90;14.45;;;;;;;;;;5265275;28;20029;-82
2023/12/19 03:51:58;;;;;;;21.13;15.18;;;;;;;;;;5265669;28;20456;-81
2023/12/19 03:54:29;;;;;;;17.84;13.98;;;;;;;;;;5265047;28;20021;-81
2023/12/19 03:57:00;;;;;;;18.35;14.65;;;;;;;;;;5265577;28;20013;-82
2023/12/19 03:59:32;;;;;;;20.17;15.07;;;;;;;;;;5264977;28;20135;-82
2023/12/19 04:02:03;;;;;;;20.42;15.70;;;;;;;;;;5264885;28;20017;-82
2023/12/19 04:04:34;;;;;;;23.83;17.25;;;;;;;;;;5265036;28;20025;-83
2023/12/19 04:07:05;;;;;;;22.50;17.92;;;;;;;;;;5263859;28;20078;-83
2023/12/19 04:09:36;;;;;;;25.25;17.73;;;;;;;;;;5264450;28;20013;-82
2023/12/19 04:12:09;;;;;;;27.95;19.40;;;;;;;;;;5264853;28;20510;-82
2023/12/19 04:14:40;;;;;;;28.52;18.33;;;;;;;;;;5264091;28;20433;-83
2023/12/19 04:17:13;;;;;;;26.70;17.83;;;;;;;;;;5264447;28;20121;-82
2023/12/19 04:19:44;;;;;;;26.30;18.90;;;;;;;;;;5264263;28;20036;-82
2023/12/19 04:22:16;;;;;;;25.17;18.58;;;;;;;;;;5263430;28;20036;-81
2023/12/19 04:24:47;;;;;;;27.95;19.02;;;;;;;;;;5264186;28;20380;-82
2023/12/19 04:27:18;;;;;;;26.42;18.30;;;;;;;;;;5264118;28;20218;-83
2023/12/19 04:29:51;;;;;;;28.33;19.98;;;;;;;;;;5263700;28;20021;-82
2023/12/19 04:32:22;;;;;;;29.92;19.63;;;;;;;;;;5263789;28;20016;-82
2023/12/19 04:34:53;;;;;;;28.92;20.23;;;;;;;;;;5264314;28;20021;-82
2023/12/19 04:37:24;;;;;;;25.45;18.33;;;;;;;;;;5264051;28;20092;-83
2023/12/19 04:39:57;;;;;;;31.80;20.52;;;;;;;;;;5264772;28;20033;-82
2023/12/19 04:42:28;;;;;;;28.45;19.80;;;;;;;;;;5263616;28;20013;-83
2023/12/19 04:44:59;;;;;;;26.73;19.73;;;;;;;;;;5264180;28;20048;-82
2023/12/19 04:47:31;;;;;;;30.90;20.83;;;;;;;;;;5264767;28;20066;-82
2023/12/19 04:50:03;;;;;;;29.42;20.65;;;;;;;;;;5265898;28;20013;-82
2023/12/19 04:52:34;;;;;;;25.77;18.40;;;;;;;;;;5264040;28;20444;-82
2023/12/19 04:55:06;;;;;;;26.95;19.27;;;;;;;;;;5263837;28;20059;-82
2023/12/19 04:57:37;;;;;;;25.52;18.55;;;;;;;;;;5262985;28;20094;-82
2023/12/19 05:00:08;;;;;;;26.70;19.52;;;;;;;;;;5264050;28;20025;-83
2023/12/19 05:02:41;;;;;;;27.85;19.05;;;;;;;;;;5263933;28;20107;-82
2023/12/19 05:05:13;;;;;;;28.20;20.38;;;;;;;;;;5262959;28;20021;-83
2023/12/19 05:07:44;;;;;;;23.02;18.05;;;;;;;;;;5263612;28;20541;-83
2023/12/19 05:10:15;;;;;;;27.40;18.33;;;;;;;;;;5262872;28;20417;-82
2023/12/19 05:12:46;;;;;;;25.17;17.50;;;;;;;;;;5263502;28;20029;-82
2023/12/19 05:15:17;;;;;;;28.25;18.92;;;;;;;;;;5263603;28;20017;-82
2023/12/19 05:17:49;;;;;;;27.15;18.90;;;;;;;;;;5262864;28;20427;-82
2023/12/19 05:20:21;;;;;;;28.30;19.50;;;;;;;;;;5263812;28;20033;-82
2023/12/19 05:22:52;;;;;;;25.17;17.67;;;;;;;;;;5264165;28;20017;-82
2023/12/19 05:25:23;;;;;;;27.52;19.75;;;;;;;;;;5262123;28;20080;-83
2023/12/19 05:27:55;;;;;;;28.25;18.15;;;;;;;;;;5263697;28;20099;-82
2023/12/19 05:30:26;;;;;;;23.15;16.60;;;;;;;;;;5262695;28;20020;-83
2023/12/19 05:32:57;;;;;;;25.75;18.58;;;;;;;;;;5262461;28;20044;-82
2023/12/19 05:35:28;;;;;;;24.75;17.73;;;;;;;;;;5263105;28;20083;-82
2023/12/19 05:38:01;;;;;;;26.44;18.24;;;;;;;;;;5263158;28;20056;-83
2023/12/19 05:40:32;;;;;;;30.05;19.65;;;;;;;;;;5262109;28;20025;-82
2023/12/19 05:43:03;;;;;;;22.17;17.77;;;;;;;;;;5262745;28;20017;-82
2023/12/19 05:45:34;;;;;;;23.75;17.02;;;;;;;;;;5262156;28;20456;-81
2023/12/19 05:48:06;;;;;;;20.77;17.38;;;;;;;;;;5263034;28;20479;-82
2023/12/19 05:50:37;;;;;;;26.00;17.20;;;;;;;;;;5262870;28;20024;-82
2023/12/19 05:53:09;;;;;;;23.38;16.95;;;;;;;;;;5262455;28;20013;-82
2023/12/19 05:55:42;;;;;;;23.90;15.95;;;;;;;;;;5262740;28;20099;-83
2023/12/19 05:58:13;;;;;;;25.83;19.17;;;;;;;;;;5262995;28;20471;-82
2023/12/19 06:00:45;;;;;;;24.00;16.65;;;;;;;;;;5262138;28;20021;-81
2023/12/19 06:03:16;;;;;;;20.90;15.75;;;;;;;;;;5261886;28;20029;-83
2023/12/19 06:05:47;;;;;;;22.13;17.15;;;;;;;;;;5262463;28;20017;-82
2023/12/19 06:08:20;;;;;;;20.48;16.77;;;;;;;;;;5261684;28;20033;-82
2023/12/19 06:10:52;;;;;;;24.05;17.13;;;;;;;;;;5262348;28;20051;-82
2023/12/19 06:13:24;;;;;;;24.10;16.45;;;;;;;;;;5261425;28;20024;-81
2023/12/19 06:15:56;;;;;;;22.35;16.73;;;;;;;;;;5262492;28;20488;-82
2023/12/19 06:18:28;;;;;;;20.38;15.90;;;;;;;;;;5262071;28;20035;-82
2023/12/19 06:21:00;;;;;;;21.38;16.15;;;;;;;;;;5261555;28;20088;-81
2023/12/19 06:23:31;;;;;;;20.25;15.10;;;;;;;;;;5261928;28;20040;-81
2023/12/19 06:26:03;;;;;;;21.28;15.58;;;;;;;;;;5261761;28;20131;-82
2023/12/19 06:28:34;;;;;;;19.27;16.20;;;;;;;;;;5261327;28;20040;-82
2023/12/19 06:31:05;;;;;;;18.15;13.93;;;;;;;;;;5261845;28;20025;-83
2023/12/19 06:33:36;;;;;;;18.80;14.73;;;;;;;;;;5262218;28;20480;-82
2023/12/19 06:36:08;;;;;;;19.15;14.88;;;;;;;;;;5261264;28;20025;-82
2023/12/19 06:38:39;;;;;;;19.92;14.20;;;;;;;;;;5261747;28;20028;-82
2023/12/19 06:41:16;;;;;;;19.92;14.65;;;;;;;;;;5261962;28;20032;-82
2023/12/19 06:43:48;;;;;;;17.27;14.15;;;;;;;;;;5262805;28;20482;-81
2023/12/19 06:46:19;;;;;;;19.45;14.43;;;;;;;;;;5263073;28;20053;-82
2023/12/19 06:48:50;;;;;;;17.58;13.90;;;;;;;;;;5261236;28;20029;-83
2023/12/19 06:51:25;;;;;;;18.95;13.50;;;;;;;;;;5261648;28;20380;-83
2023/12/19 06:53:57;;;;;;;19.35;14.10;;;;;;;;;;5262212;28;20042;-83
2023/12/19 06:56:28;;;;;;;17.30;13.68;;;;;;;;;;5261228;28;20017;-82
2023/12/19 06:59:01;;;;;;;17.88;13.77;;;;;;;;;;5261735;28;20111;-81
2023/12/19 07:01:32;;;;;;;22.48;14.93;;;;;;;;;;5261912;28;20052;-78
2023/12/19 07:04:03;;;;;;;18.60;13.35;;;;;;;;;;5260697;28;20495;-80
2023/12/19 07:06:35;;;;;;;18.05;14.20;;;;;;;;;;5261579;28;20104;-80
2023/12/19 07:09:06;;;;;;;15.07;13.23;;;;;;;;;;5261042;28;20028;-80
2023/12/19 07:11:39;;;;;;;16.70;12.18;;;;;;;;;;5260518;28;20357;-80
2023/12/19 07:14:10;;;;;;;17.17;12.68;;;;;;;;;;5261311;28;20036;-81
2023/12/19 07:16:42;;;;;;;17.17;12.85;;;;;;;;;;5260678;28;20021;-79
2023/12/19 07:19:13;;;;;;;20.65;14.10;;;;;;;;;;5261012;28;20037;-80
2023/12/19 07:21:44;;;;;;;16.25;12.02;;;;;;;;;;5261975;28;20016;-82
2023/12/19 07:24:16;;;;;;;14.90;12.23;;;;;;;;;;5261081;28;20047;-81
2023/12/19 07:26:47;;;;;;;15.15;11.75;;;;;;;;;;5261915;28;20049;-82
2023/12/19 07:29:19;;;;;;;15.88;12.77;;;;;;;;;;5261079;28;20013;-79
2023/12/19 07:31:51;;;;;;;13.38;11.35;;;;;;;;;;5260204;28;20029;-80
2023/12/19 07:34:22;;;;;;;17.63;12.27;;;;;;;;;;5260750;28;20013;-80
2023/12/19 07:36:53;;;;;;;17.13;10.98;;;;;;;;;;5261412;28;20104;-80
2023/12/19 07:39:25;;;;;;;14.63;11.07;;;;;;;;;;5259665;28;20546;-82
2023/12/19 07:41:56;;;;;;;15.02;12.15;;;;;;;;;;5261065;28;20064;-80
2023/12/19 07:44:27;;;;;;;16.55;10.68;;;;;;;;;;5261971;28;20028;-80
2023/12/19 07:46:58;;;;;;;16.58;10.68;;;;;;;;;;5260416;28;20072;-77
2023/12/19 07:49:29;;;;;;;13.27;10.90;;;;;;;;;;5261505;28;20092;-84
2023/12/19 07:52:01;;;;;;;13.65;10.18;;;;;;;;;;5262130;28;20094;-85
2023/12/19 07:54:32;;;;;;;13.82;10.25;;;;;;;;;;5262992;28;20067;-83
2023/12/19 07:57:03;;;;;;;13.45;10.25;;;;;;;;;;5263675;28;20061;-83
2023/12/19 07:59:34;;;;;;;14.07;9.93;;;;;;;;;;5263845;28;20043;-84
2023/12/19 08:02:06;;;;;;;12.82;10.18;;;;;;;;;;5263635;28;20025;-82
2023/12/19 08:04:37;;;;;;;15.45;9.93;;;;;;;;;;5263107;28;20421;-83
2023/12/19 08:07:09;;;;;;;14.35;10.02;;;;;;;;;;5260993;28;20407;-81
2023/12/19 08:09:40;;;;;;;15.13;9.63;;;;;;;;;;5261092;28;20067;-79
2023/12/19 08:12:11;;;;;;;12.76;9.58;;;;;;;;;;5260199;28;20441;-78
2023/12/19 08:14:42;;;;;;;13.02;10.00;;;;;;;;;;5259724;28;20379;-79
2023/12/19 08:17:15;;;;;;;11.60;9.63;;;;;;;;;;5260394;28;20025;-78
2023/12/19 08:19:46;;;;;;;13.38;9.20;;;;;;;;;;5260270;28;20047;-79
2023/12/19 08:22:17;;;;;;;11.90;9.55;;;;;;;;;;5259877;28;20021;-79
2023/12/19 08:24:49;;;;;;;11.98;9.65;;;;;;;;;;5260368;28;20078;-79
2023/12/19 08:27:23;;;;;;;11.85;9.40;;;;;;;;;;5263370;28;20040;-78
2023/12/19 08:29:55;;;;;;;12.63;9.20;;;;;;;;;;5264514;28;20103;-77
2023/12/19 08:32:27;;;;;;;11.70;9.93;;;;;;;;;;5263943;28;20097;-77
2023/12/19 08:34:58;;;;;;;15.70;10.45;;;;;;;;;;5263679;28;20442;-75
2023/12/19 08:37:30;;;;;;;12.77;10.77;;;;;;;;;;5264293;28;20105;-77
2023/12/19 08:40:03;;;;;;;15.05;9.65;;;;;;;;;;5264292;28;20024;-76
2023/12/19 08:42:34;;;;;;;12.82;9.25;;;;;;;;;;5263927;28;20052;-75
2023/12/19 08:45:05;;;;;;;13.25;9.23;;;;;;;;;;5265900;28;20044;-75
2023/12/19 08:47:36;;;;;;;14.25;10.57;;;;;;;;;;5264109;28;20095;-77
2023/12/19 08:50:09;;;;;;;16.05;10.60;;;;;;;;;;5263325;28;20476;-77
2023/12/19 08:52:42;;;;;;;14.70;10.45;;;;;;;;;;5263776;28;20025;-76
2023/12/19 08:55:13;;;;;;;12.60;9.65;;;;;;;;;;5262847;28;20374;-76
2023/12/19 08:57:45;;;;;;;13.20;10.00;;;;;;;;;;5263797;28;20041;-76
2023/12/19 09:00:17;;;;;;;13.05;8.88;;;;;;;;;;5263608;28;20017;-77
2023/12/19 09:02:49;;;;;;;18.05;10.23;;;;;;;;;;5262766;28;20021;-77
2023/12/19 09:05:21;;;;;;;12.23;9.55;;;;;;;;;;5263352;28;20013;-77
2023/12/19 09:07:52;;;;;;;11.68;8.85;;;;;;;;;;5263919;28;20380;-79
2023/12/19 09:10:23;;;;;;;13.73;10.07;;;;;;;;;;5262844;28;20028;-78
2023/12/19 09:12:54;;;;;;;11.45;8.77;;;;;;;;;;5263759;28;20024;-77
2023/12/19 09:15:26;;;;;;;11.80;8.35;;;;;;;;;;5262997;28;20044;-77
2023/12/19 09:17:57;;;;;;;9.95;8.55;;;;;;;;;;5262393;28;20020;-77
2023/12/19 09:20:29;;;;;;;9.60;8.60;;;;;;;;;;5263026;28;20021;-77
2023/12/19 09:23:00;;;;;;;10.30;8.07;;;;;;;;;;5263217;28;20169;-80
2023/12/19 09:25:32;;;;;;;9.20;8.15;;;;;;;;;;5262463;28;20081;-80
2023/12/19 09:28:03;;;;;;;9.45;7.65;;;;;;;;;;5263388;28;20041;-80
2023/12/19 09:30:34;;;;;;;10.15;7.68;;;;;;;;;;5262023;28;20132;-81
2023/12/19 09:33:06;;;;;;;11.70;8.10;;;;;;;;;;5262871;28;20025;-80
2023/12/19 09:35:37;;;;;;;8.25;6.35;;;;;;;;;;5263375;28;20533;-80
2023/12/19 09:38:08;;;;;;;10.70;7.05;;;;;;;;;;5261367;28;20375;-77
2023/12/19 09:40:40;;;;;;;9.55;6.50;;;;;;;;;;5262850;28;20067;-77
2023/12/19 09:43:11;;;;;;;9.63;7.18;;;;;;;;;;5262711;28;20020;-79
2023/12/19 09:45:43;;;;;;;9.55;6.80;;;;;;;;;;5261956;28;20040;-77
2023/12/19 09:48:15;;;;;;;8.18;6.45;;;;;;;;;;5262617;28;20096;-77
2023/12/19 09:50:46;;;;;;;6.25;5.65;;;;;;;;;;5262595;28;20123;-76
2023/12/19 09:53:18;;;;;;;6.93;6.22;;;;;;;;;;5261834;28;20047;-77
2023/12/19 09:55:49;;;;;;;6.40;5.63;;;;;;;;;;5262466;28;20009;-78
2023/12/19 09:58:20;;;;;;;9.00;5.65;;;;;;;;;;5262163;28;20379;-76
2023/12/19 10:00:53;;;;;;;5.80;5.22;;;;;;;;;;5262488;28;20044;-77
2023/12/19 10:03:24;;;;;;;6.47;5.30;;;;;;;;;;5262118;28;20082;-77
2023/12/19 10:05:59;;;;;;;6.88;5.35;;;;;;;;;;5261674;28;20017;-76
2023/12/19 10:08:31;;;;;;;5.90;5.30;;;;;;;;;;5261989;28;20029;-76
2023/12/19 10:11:03;;;;;;;5.75;4.72;;;;;;;;;;5262068;28;20017;-76
2023/12/19 10:13:38;;;;;;;6.32;4.72;;;;;;;;;;5261251;28;20028;-76
2023/12/19 10:16:11;;;;;;;7.03;5.28;;;;;;;;;;5261677;28;20105;-77
2023/12/19 10:18:42;;;;;;;6.45;4.70;;;;;;;;;;5261829;28;20052;-76
2023/12/19 10:21:14;;;;;;;5.55;4.57;;;;;;;;;;5261067;28;20380;-76
2023/12/19 10:23:45;;;;;;;6.85;4.60;;;;;;;;;;5261765;28;20028;-76
2023/12/19 10:26:21;;;;;;;6.60;4.70;;;;;;;;;;5261544;28;20075;-76
2023/12/19 10:28:55;;;;;;;5.90;4.80;;;;;;;;;;5260857;28;20040;-76
2023/12/19 10:31:26;;;;;;;5.85;4.70;;;;;;;;;;5261430;28;20158;-76
2023/12/19 10:33:57;;;;;;;5.45;4.85;;;;;;;;;;5260901;28;20036;-76
2023/12/19 10:36:32;;;;;;;6.00;4.93;;;;;;;;;;5261318;28;20100;-75
2023/12/19 10:39:05;;;;;;;5.63;4.72;;;;;;;;;;5261121;28;20258;-76
2023/12/19 10:41:38;;;;;;;6.43;5.07;;;;;;;;;;5260815;28;20055;-77
2023/12/19 10:44:10;;;;;;;5.55;4.85;;;;;;;;;;5261433;28;20048;-77
2023/12/19 10:46:41;;;;;;;6.43;5.10;;;;;;;;;;5261354;28;20063;-77
2023/12/19 10:49:13;;;;;;;5.18;4.63;;;;;;;;;;5260451;28;20052;-76
2023/12/19 10:51:47;;;;;;;6.55;5.18;;;;;;;;;;5261283;28;20020;-76
2023/12/19 10:54:21;;;;;;;6.25;5.18;;;;;;;;;;5260890;28;20013;-77
2023/12/19 10:56:53;;;;;;;6.45;5.80;;;;;;;;;;5260738;28;20021;-78
2023/12/19 10:59:31;;;;;;;8.82;5.55;;;;;;;;;;5260630;28;20029;-78
2023/12/19 11:02:14;;;;;;;6.57;5.20;;;;;;;;;;5260269;28;20017;-79
2023/12/19 11:04:49;;;;;;;6.22;5.20;;;;;;;;;;5261376;28;20104;-77
2023/12/19 11:07:22;;;;;;;5.65;4.80;;;;;;;;;;5261051;28;20020;-78
2023/12/19 11:09:55;;;;;;;6.97;5.82;;;;;;;;;;5260549;28;20036;-79
2023/12/19 11:12:27;;;;;;;6.53;5.38;;;;;;;;;;5260387;28;20028;-77
2023/12/19 11:14:58;;;;;;;6.68;4.93;;;;;;;;;;5260883;28;20005;-77
2023/12/19 11:17:35;;;;;;;7.95;5.20;;;;;;;;;;5259140;28;20025;-77
2023/12/19 11:20:27;;;;;;;7.05;6.13;;;;;;;;;;5260368;28;20033;-76
2023/12/19 11:22:58;;;;;;;6.38;5.10;;;;;;;;;;5259461;28;20471;-77
2023/12/19 11:25:30;;;;;;;6.10;4.80;;;;;;;;;;5260317;28;20020;-76
2023/12/19 11:28:02;;;;;;;5.47;4.78;;;;;;;;;;5260874;28;20479;-76
2023/12/19 11:30:36;;;;;;;5.65;4.53;;;;;;;;;;5259767;28;20021;-76
2023/12/19 11:33:08;;;;;;;4.50;4.10;;;;;;;;;;5260474;28;20025;-76
2023/12/19 11:35:39;;;;;;;4.45;3.40;;;;;;;;;;5260522;28;20086;-76
2023/12/19 11:38:17;;;;;;;5.22;4.47;;;;;;;;;;5259568;28;20033;-75
2023/12/19 11:40:50;;;;;;;4.93;4.38;;;;;;;;;;5260472;28;20468;-78
2023/12/19 11:43:27;;;;;;;4.38;3.70;;;;;;;;;;5260004;28;20021;-78
2023/12/19 11:46:04;;;;;;;5.30;3.90;;;;;;;;;;5259459;28;20032;-79
2023/12/19 11:48:46;;;;;;;3.38;3.05;;;;;;;;;;5260399;28;20028;-77
2023/12/19 11:51:36;;;;;;;4.45;3.45;;;;;;;;;;5259726;28;20024;-77
2023/12/19 11:54:10;;;;;;;5.00;4.30;;;;;;;;;;5260049;28;20075;-79
2023/12/19 11:56:41;;;;;;;4.15;3.75;;;;;;;;;;5260209;28;20029;-78
2023/12/19 11:59:14;;;;;;;5.25;4.07;;;;;;;;;;5259116;28;20032;-78
2023/12/19 12:01:47;;;;;;;4.28;3.40;;;;;;;;;;5263199;28;20099;-79
2023/12/19 12:04:19;;;;;;;4.38;3.38;;;;;;;;;;5264085;28;20499;-78
2023/12/19 12:06:55;;;;;;;4.30;3.72;;;;;;;;;;5263719;28;20009;-77
2023/12/19 12:09:26;;;;;;;3.38;2.92;;;;;;;;;;5263661;28;20033;-79
2023/12/19 12:11:57;;;;;;;4.10;3.08;;;;;;;;;;5264368;28;20082;-78
2023/12/19 12:14:31;;;;;;;4.06;3.22;;;;;;;;;;5263459;28;20553;-78
2023/12/19 12:17:03;;;;;;;2.90;2.38;;;;;;;;;;5265235;28;20025;-80
2023/12/19 12:19:34;;;;;;;3.58;3.00;;;;;;;;;;5263147;28;20035;-77
2023/12/19 12:22:05;;;;;;;3.55;2.80;;;;;;;;;;5264435;28;20423;-80
2023/12/19 12:24:36;;;;;;;3.30;2.35;;;;;;;;;;5264478;28;20050;-79
2023/12/19 12:27:09;;;;;;;3.95;2.42;;;;;;;;;;5264542;28;20102;-82
2023/12/19 12:29:40;;;;;;;3.00;2.42;;;;;;;;;;5265877;28;20043;-82
2023/12/19 12:32:12;;;;;;;3.25;2.85;;;;;;;;;;5265577;28;20029;-83
2023/12/19 12:34:46;;;;;;;3.97;2.63;;;;;;;;;;5268154;28;20017;-81
2023/12/19 12:37:18;;;;;;;3.17;2.88;;;;;;;;;;5264903;28;20032;-79
2023/12/19 12:39:49;;;;;;;3.40;2.70;;;;;;;;;;5264533;28;20025;-83
2023/12/19 12:42:22;;;;;;;4.15;3.15;;;;;;;;;;5263343;28;20468;-80
2023/12/19 12:45:02;;;;;;;4.75;2.63;;;;;;;;;;5265072;28;20021;-81
2023/12/19 12:47:37;;;;;;;2.97;2.67;;;;;;;;;;5263185;28;20032;-80
2023/12/19 12:50:08;;;;;;;3.42;2.60;;;;;;;;;;5263785;28;20088;-80
2023/12/19 12:52:39;;;;;;;3.63;2.78;;;;;;;;;;5254867;28;20127;-79
2023/12/19 12:55:12;;;;;;;4.55;2.90;;;;;;;;;;5263761;28;20083;-81
2023/12/19 12:57:44;;;;;;;3.88;3.15;;;;;;;;;;5263067;28;20024;-79
2023/12/19 13:00:15;;;;;;;3.33;2.70;;;;;;;;;;5262684;28;20378;-79
2023/12/19 13:02:47;;;;;;;2.88;2.50;;;;;;;;;;5262819;28;20112;-79
2023/12/19 13:05:18;;;;;;;3.72;2.95;;;;;;;;;;5265924;28;20029;-82
2023/12/19 13:07:49;;;;;;;3.67;2.15;;;;;;;;;;5276071;28;20049;-78
2023/12/19 13:10:20;;;;;;;3.67;3.03;;;;;;;;;;5270605;28;20349;-77
2023/12/19 13:12:51;;;;;;;3.80;2.70;;;;;;;;;;5271220;28;20013;-78
2023/12/19 13:15:22;;;;;;;3.08;2.17;;;;;;;;;;5264534;28;20029;-79
2023/12/19 13:17:54;;;;;;;2.85;2.17;;;;;;;;;;5263686;28;20107;-80
2023/12/19 13:20:25;;;;;;;3.97;2.20;;;;;;;;;;5263127;28;20023;-80
2023/12/19 13:22:56;;;;;;;3.50;1.98;;;;;;;;;;5263002;28;20031;-81
2023/12/19 13:25:28;;;;;;;4.22;2.45;;;;;;;;;;5263447;28;20605;-81
2023/12/19 13:27:59;;;;;;;3.17;2.22;;;;;;;;;;5263718;28;20033;-81
2023/12/19 13:30:31;;;;;;;4.20;2.30;;;;;;;;;;5261692;28;20019;-83
2023/12/19 13:33:05;;;;;;;5.00;2.53;;;;;;;;;;5262529;28;20024;-83
2023/12/19 13:35:37;;;;;;;3.08;2.75;;;;;;;;;;5262288;28;20025;-81
2023/12/19 13:38:08;;;;;;;3.20;2.38;;;;;;;;;;5261938;28;20024;-81
2023/12/19 13:40:39;;;;;;;3.10;2.33;;;;;;;;;;5262610;28;20446;-82
2023/12/19 13:43:11;;;;;;;2.45;2.20;;;;;;;;;;5262554;28;20103;-81
2023/12/19 13:45:42;;;;;;;3.08;2.22;;;;;;;;;;5261181;28;20036;-81
2023/12/19 13:48:14;;;;;;;4.05;2.20;;;;;;;;;;5261939;28;20056;-80
2023/12/19 13:50:45;;;;;;;3.58;2.55;;;;;;;;;;5261011;28;20020;-79
2023/12/19 13:53:17;;;;;;;4.30;2.70;;;;;;;;;;5261330;28;20114;-81
2023/12/19 13:55:48;;;;;;;3.25;2.60;;;;;;;;;;5244629;28;20025;-80
2023/12/19 13:58:20;;;;;;;3.47;2.63;;;;;;;;;;5240683;28;20393;-81
2023/12/19 14:00:55;;;;;;;4.05;2.83;;;;;;;;;;5241292;28;20032;-80
2023/12/19 14:03:26;;;;;;;4.20;2.92;;;;;;;;;;5239774;28;20022;-81
2023/12/19 14:05:58;;;;;;;3.20;2.13;;;;;;;;;;5239610;28;20028;-79
2023/12/19 14:08:31;;;;;;;4.60;3.13;;;;;;;;;;5250867;28;20021;-78
2023/12/19 14:11:02;;;;;;;3.35;2.03;;;;;;;;;;5262023;28;20025;-78
2023/12/19 14:13:33;;;;;;;4.80;2.90;;;;;;;;;;5260882;28;20032;-78
2023/12/19 14:16:04;;;;;;;2.78;2.45;;;;;;;;;;5261587;28;20087;-79
2023/12/19 14:18:36;;;;;;;4.30;2.90;;;;;;;;;;5261082;28;20021;-79
2023/12/19 14:21:07;;;;;;;4.60;3.15;;;;;;;;;;5261330;28;20009;-80
2023/12/19 14:23:38;;;;;;;3.25;2.40;;;;;;;;;;5260434;28;20032;-80
2023/12/19 14:26:10;;;;;;;3.38;2.65;;;;;;;;;;5259724;28;20408;-81
2023/12/19 14:28:41;;;;;;;4.13;3.10;;;;;;;;;;5261356;28;20132;-79
2023/12/19 14:31:15;;;;;;;3.92;2.67;;;;;;;;;;5261733;28;20083;-79
2023/12/19 14:33:47;;;;;;;4.40;2.90;;;;;;;;;;5260988;28;20495;-80
2023/12/19 14:36:18;;;;;;;2.92;2.63;;;;;;;;;;5260692;28;20017;-78
2023/12/19 14:38:49;;;;;;;2.90;2.42;;;;;;;;;;5261434;28;20033;-79
2023/12/19 14:41:20;;;;;;;3.47;2.85;;;;;;;;;;5260613;28;20067;-79
2023/12/19 14:43:52;;;;;;;3.40;2.40;;;;;;;;;;5261855;28;20025;-81
2023/12/19 14:46:23;;;;;;;3.72;2.72;;;;;;;;;;5261319;28;20021;-79
2023/12/19 14:48:55;;;;;;;3.85;3.17;;;;;;;;;;5260897;28;20025;-80
2023/12/19 14:51:26;;;;;;;3.50;2.88;;;;;;;;;;5261042;28;20029;-80
2023/12/19 14:53:57;;;;;;;5.55;3.17;;;;;;;;;;5260710;28;20020;-80
2023/12/19 14:56:28;;;;;;;3.65;2.95;;;;;;;;;;5261636;28;20025;-81